Time;durP1;ratioP1;P1;durP2;ratioP2;P2;SDS_P1;SDS_P2;PMS_P1;PMS_P2;Temp;Humidity;BMP_temperature;BMP_pressure;BME280_temperature;BME280_humidity;BME280_pressure;Samples;Min_cycle;Max_cycle;Signal;HPM_P1;HPM_P2
2023/04/29 00:00:55;;;;;;;47.58;22.67;;;;;;;11.41;78.79;101362.66;5108497;27;20306;-88
2023/04/29 00:03:21;;;;;;;43.38;21.65;;;;;;;11.34;79.04;101370.88;5113751;27;20504;-88
2023/04/29 00:05:46;;;;;;;41.45;20.23;;;;;;;11.33;79.11;101355.88;5102854;27;20448;-88
2023/04/29 00:08:11;;;;;;;41.88;22.65;;;;;;;11.35;79.11;101380.53;5107360;28;20058;-88
2023/04/29 00:10:38;;;;;;;43.60;21.15;;;;;;;11.33;78.51;101374.41;5104751;27;20027;-88
2023/04/29 00:13:03;;;;;;;39.83;23.02;;;;;;;11.34;79.13;101378.81;5106274;28;20019;-88
2023/04/29 00:15:29;;;;;;;37.85;20.27;;;;;;;11.34;79.16;101370.88;5104563;28;20380;-88
2023/04/29 00:17:54;;;;;;;42.60;20.67;;;;;;;11.34;78.56;101373.53;5109123;28;20019;-88
2023/04/29 00:20:19;;;;;;;41.75;23.33;;;;;;;11.39;78.70;101379.53;5109453;28;20592;-88
2023/04/29 00:22:45;;;;;;;43.42;22.20;;;;;;;11.34;78.67;101371.75;5104882;27;20406;-87
2023/04/29 00:25:11;;;;;;;47.05;21.98;;;;;;;11.32;78.99;101380.63;5106332;28;20024;-88
2023/04/29 00:27:36;;;;;;;41.28;21.33;;;;;;;11.32;79.47;101392.09;5107691;28;20020;-88
2023/04/29 00:30:02;;;;;;;46.20;23.35;;;;;;;11.27;79.26;101396.69;5112772;27;20035;-88
2023/04/29 00:32:28;;;;;;;44.50;23.63;;;;;;;11.17;79.09;101388.19;5108584;27;20065;-87
2023/04/29 00:34:54;;;;;;;46.15;24.48;;;;;;;11.24;79.44;101397.66;5101871;28;20062;-88
2023/04/29 00:37:19;;;;;;;46.95;22.00;;;;;;;11.18;79.27;101397.00;5107083;28;20051;-88
2023/04/29 00:39:44;;;;;;;44.20;22.42;;;;;;;11.12;79.73;101398.06;5105670;28;20024;-88
2023/04/29 00:42:10;;;;;;;46.22;22.60;;;;;;;11.13;79.92;101398.94;5108572;27;20019;-88
2023/04/29 00:44:35;;;;;;;42.38;22.83;;;;;;;11.37;79.46;101402.53;5100693;28;20578;-88
2023/04/29 00:47:01;;;;;;;41.03;21.73;;;;;;;11.33;78.73;101401.78;5111536;27;20068;-88
2023/04/29 00:49:26;;;;;;;41.72;22.42;;;;;;;11.34;78.52;101397.34;5108113;27;20015;-88
2023/04/29 00:51:53;;;;;;;35.83;20.85;;;;;;;11.33;78.90;101400.88;5105871;28;20055;-88
2023/04/29 00:54:18;;;;;;;33.63;20.15;;;;;;;11.40;78.47;101413.00;5104284;28;20169;-88
2023/04/29 00:56:45;;;;;;;37.55;21.38;;;;;;;11.26;78.31;101407.34;5104330;28;20529;-88
2023/04/29 00:59:11;;;;;;;35.05;20.17;;;;;;;11.13;79.84;101406.88;5098298;28;20426;-88
2023/04/29 01:01:37;;;;;;;36.63;20.90;;;;;;;11.07;78.72;101417.66;5104414;28;20378;-87
2023/04/29 01:04:04;;;;;;;33.10;19.70;;;;;;;10.96;78.80;101420.69;5109417;28;20223;-87
2023/04/29 01:06:52;;;;;;;32.60;19.05;;;;;;;10.91;79.33;101419.94;5104408;28;20060;-88
2023/04/29 01:09:33;;;;;;;33.45;19.58;;;;;;;10.87;78.97;101429.75;5100724;28;20033;-87
2023/04/29 01:12:20;;;;;;;30.67;19.00;;;;;;;10.80;79.02;101420.28;5107041;28;20051;-88
2023/04/29 01:14:53;;;;;;;36.17;20.77;;;;;;;10.80;79.33;101430.84;5106017;28;20497;-88
2023/04/29 01:17:24;;;;;;;34.67;21.20;;;;;;;10.83;78.47;101420.19;5105500;28;20033;-88
2023/04/29 01:19:54;;;;;;;35.70;19.73;;;;;;;10.89;78.17;101427.06;5100003;28;20051;-88
2023/04/29 01:22:20;;;;;;;39.92;23.10;;;;;;;10.83;78.75;101430.78;5105201;27;20482;-88
2023/04/29 01:24:47;;;;;;;38.70;22.25;;;;;;;10.81;78.41;101424.66;5101061;28;20387;-88
2023/04/29 01:27:28;;;;;;;39.53;23.52;;;;;;;10.91;79.11;101435.78;5105063;28;20410;-88
2023/04/29 01:30:04;;;;;;;30.95;19.33;;;;;;;10.89;79.03;101435.84;5103959;27;20028;-87
2023/04/29 01:32:42;;;;;;;33.95;20.33;;;;;;;10.80;78.83;101438.78;5112452;27;20023;-88
2023/04/29 01:35:33;;;;;;;37.83;22.35;;;;;;;10.72;79.41;101428.47;5099443;28;20514;-88
2023/04/29 01:38:35;;;;;;;39.30;22.05;;;;;;;10.78;79.90;101439.78;5107590;28;20039;-88
2023/04/29 01:41:30;;;;;;;40.40;23.58;;;;;;;10.77;80.19;101445.94;5102702;28;20023;-88
2023/04/29 01:43:57;;;;;;;45.63;23.92;;;;;;;10.67;80.07;101438.31;5106735;28;20019;-88
2023/04/29 01:46:22;;;;;;;44.33;23.38;;;;;;;10.64;80.28;101437.56;5102121;28;20896;-88
2023/04/29 01:48:48;;;;;;;46.30;24.00;;;;;;;10.61;80.32;101440.28;5106651;28;20088;-88
2023/04/29 01:51:13;;;;;;;40.28;23.77;;;;;;;10.70;80.34;101453.22;5096904;27;20035;-88
2023/04/29 01:53:39;;;;;;;39.88;22.10;;;;;;;10.66;79.89;101446.28;5106331;28;20390;-88
2023/04/29 01:56:06;;;;;;;43.13;24.45;;;;;;;10.63;80.55;101439.34;5100469;28;20027;-88
2023/04/29 01:58:31;;;;;;;42.92;24.17;;;;;;;10.58;80.55;101433.28;5099259;28;20097;-88
2023/04/29 02:00:57;;;;;;;42.70;24.92;;;;;;;10.68;80.38;101455.06;5107476;28;20214;-88
2023/04/29 02:03:22;;;;;;;38.90;22.98;;;;;;;10.64;80.19;101442.84;5105773;28;20027;-88
2023/04/29 02:05:49;;;;;;;39.65;22.77;;;;;;;10.68;80.36;101455.06;5103093;28;20030;-88
2023/04/29 02:08:14;;;;;;;42.22;22.77;;;;;;;10.62;80.43;101448.16;5103864;28;20254;-88
2023/04/29 02:10:40;;;;;;;41.90;23.40;;;;;;;10.67;80.45;101454.16;5105826;28;20111;-88
2023/04/29 02:13:05;;;;;;;42.25;22.90;;;;;;;10.73;80.36;101461.06;5101907;28;20039;-88
2023/04/29 02:15:30;;;;;;;44.03;23.92;;;;;;;10.70;80.20;101469.94;5103401;28;20370;-88
2023/04/29 02:17:55;;;;;;;49.17;23.67;;;;;;;10.63;80.57;101452.56;5106727;28;20031;-88
2023/04/29 02:20:21;;;;;;;47.50;25.10;;;;;;;10.65;80.54;101463.06;5106879;28;20411;-88
2023/04/29 02:22:46;;;;;;;43.65;23.70;;;;;;;10.69;80.50;101470.88;5111401;28;20023;-88
2023/04/29 02:25:11;;;;;;;50.55;25.95;;;;;;;10.68;80.36;101473.56;5107393;28;20599;-88
2023/04/29 02:27:37;;;;;;;45.63;25.58;;;;;;;10.65;80.27;101479.81;5105738;28;20051;-88
2023/04/29 02:30:03;;;;;;;49.38;25.33;;;;;;;10.60;80.38;101459.72;5103415;28;20047;-88
2023/04/29 02:32:29;;;;;;;47.50;25.23;;;;;;;10.65;80.46;101479.81;5097707;28;20064;-88
2023/04/29 02:34:55;;;;;;;45.45;24.45;;;;;;;10.48;80.53;101460.94;5102832;28;20024;-88
2023/04/29 02:37:20;;;;;;;48.88;24.13;;;;;;;10.62;80.85;101487.81;5108817;28;20306;-88
2023/04/29 02:39:45;;;;;;;45.80;25.05;;;;;;;10.57;81.34;101478.31;5105786;28;20058;-88
2023/04/29 02:42:11;;;;;;;47.70;25.65;;;;;;;10.57;81.58;101492.38;5107557;28;20102;-88
2023/04/29 02:44:36;;;;;;;49.10;25.55;;;;;;;10.52;81.81;101496.09;5105717;28;20059;-87
2023/04/29 02:47:01;;;;;;;50.50;25.00;;;;;;;10.64;81.25;101488.66;5108827;28;20770;-88
2023/04/29 02:49:27;;;;;;;54.22;25.83;;;;;;;10.74;80.70;101505.13;5115832;27;20062;-88
2023/04/29 02:51:52;;;;;;;48.95;23.23;;;;;;;10.50;82.09;101503.22;5106630;28;20485;-88
2023/04/29 02:54:17;;;;;;;51.58;25.25;;;;;;;10.46;82.24;101516.50;5105805;28;20034;-88
2023/04/29 02:56:43;;;;;;;49.45;25.63;;;;;;;10.44;82.59;101513.06;5099597;28;20050;-88
2023/04/29 02:59:08;;;;;;;54.67;25.83;;;;;;;10.46;82.73;101523.56;5102592;28;20024;-88
2023/04/29 03:01:34;;;;;;;52.42;25.40;;;;;;;10.42;82.85;101514.84;5106134;28;20072;-87
2023/04/29 03:03:59;;;;;;;50.83;26.05;;;;;;;10.44;82.81;101517.44;5105665;28;20027;-88
2023/04/29 03:06:25;;;;;;;51.85;26.13;;;;;;;10.47;82.89;101520.00;5106388;28;20032;-87
2023/04/29 03:08:51;;;;;;;52.20;26.08;;;;;;;10.48;82.68;101505.88;5117468;27;20036;-88
2023/04/29 03:11:17;;;;;;;49.80;25.48;;;;;;;10.56;82.43;101527.69;5110574;27;20212;-87
2023/04/29 03:13:42;;;;;;;58.78;25.77;;;;;;;10.57;82.63;101520.59;5106464;28;20102;-88
2023/04/29 03:16:07;;;;;;;50.22;25.80;;;;;;;10.58;82.57;101517.91;5108735;27;20095;-88
2023/04/29 03:18:32;;;;;;;56.33;26.70;;;;;;;10.65;82.09;101522.13;5108623;28;20027;-88
2023/04/29 03:20:58;;;;;;;55.88;25.70;;;;;;;10.47;82.62;101518.22;5104970;27;20061;-88
2023/04/29 03:23:24;;;;;;;50.58;24.25;;;;;;;10.46;82.87;101523.56;5111525;28;20015;-88
2023/04/29 03:25:51;;;;;;;50.60;23.88;;;;;;;10.39;83.21;101520.22;5100959;28;20050;-87
2023/04/29 03:28:17;;;;;;;51.05;24.60;;;;;;;10.42;83.10;101529.84;5107035;28;20105;-88
2023/04/29 03:30:42;;;;;;;51.55;24.85;;;;;;;10.43;82.89;101543.00;5107276;27;20527;-87
2023/04/29 03:33:08;;;;;;;49.15;26.05;;;;;;;10.48;83.25;101541.09;5122809;27;20442;-88
2023/04/29 03:35:33;;;;;;;47.63;23.83;;;;;;;10.41;83.21;101539.56;5105325;27;20019;-87
2023/04/29 03:37:58;;;;;;;56.13;25.10;;;;;;;10.38;83.11;101537.00;5111480;27;20212;-87
2023/04/29 03:40:24;;;;;;;47.53;23.90;;;;;;;10.44;83.19;101538.59;5110932;27;20023;-87
2023/04/29 03:42:49;;;;;;;48.33;23.67;;;;;;;10.46;82.87;101539.44;5116010;27;20114;-87
2023/04/29 03:45:14;;;;;;;45.60;24.30;;;;;;;10.43;82.47;101528.94;5105072;27;20544;-87
2023/04/29 03:47:40;;;;;;;45.20;23.08;;;;;;;10.48;82.60;101543.75;5113522;27;20049;-87
2023/04/29 03:50:07;;;;;;;46.45;22.60;;;;;;;10.52;82.59;101547.19;5108914;28;20023;-87
2023/04/29 03:52:35;;;;;;;47.22;22.23;;;;;;;10.50;82.81;101538.44;5107778;28;20059;-87
2023/04/29 03:55:00;;;;;;;44.95;21.35;;;;;;;10.53;82.01;101551.53;5103090;28;20020;-87
2023/04/29 03:57:26;;;;;;;39.22;20.98;;;;;;;10.62;81.71;101540.72;5109769;28;20031;-87
2023/04/29 03:59:51;;;;;;;39.40;20.50;;;;;;;10.61;81.12;101536.34;5106703;27;20549;-88
2023/04/29 04:02:16;;;;;;;40.95;19.45;;;;;;;10.42;82.64;101543.06;5108970;27;20049;-87
2023/04/29 04:04:42;;;;;;;40.05;20.40;;;;;;;10.38;81.89;101536.13;5105092;28;20035;-88
2023/04/29 04:07:07;;;;;;;42.90;20.45;;;;;;;10.64;81.68;101552.13;5098319;27;20027;-88
2023/04/29 04:09:32;;;;;;;45.72;21.13;;;;;;;10.56;82.18;101551.47;5106332;28;20023;-88
2023/04/29 04:11:58;;;;;;;41.28;21.40;;;;;;;10.62;81.73;101566.28;5111109;27;20028;-87
2023/04/29 04:14:23;;;;;;;44.25;21.88;;;;;;;10.63;82.30;101555.69;5106857;28;20376;-88
2023/04/29 04:16:49;;;;;;;41.33;21.90;;;;;;;10.67;82.32;101567.03;5106380;28;20030;-88
2023/04/29 04:19:15;;;;;;;41.38;21.88;;;;;;;10.64;82.83;101568.00;5113316;27;20380;-88
2023/04/29 04:21:41;;;;;;;42.97;21.85;;;;;;;10.59;82.64;101561.97;5111206;27;20069;-88
2023/04/29 04:24:06;;;;;;;39.80;20.80;;;;;;;10.57;82.38;101574.34;5103166;28;20129;-88
2023/04/29 04:26:31;;;;;;;38.80;21.13;;;;;;;10.55;82.90;101568.25;5106890;28;20028;-88
2023/04/29 04:28:57;;;;;;;38.75;20.88;;;;;;;10.57;82.42;101584.94;5105644;28;20390;-89
2023/04/29 04:31:22;;;;;;;43.28;22.10;;;;;;;10.72;81.53;101571.28;5109772;27;20030;-88
2023/04/29 04:33:47;;;;;;;40.55;22.48;;;;;;;10.82;82.11;101576.28;5115217;27;20539;-88
2023/04/29 04:36:12;;;;;;;43.38;22.80;;;;;;;10.66;81.32;101567.94;5108024;28;20023;-88
2023/04/29 04:38:38;;;;;;;45.35;22.77;;;;;;;10.61;82.58;101591.00;5109675;28;20056;-88
2023/04/29 04:41:06;;;;;;;41.45;21.98;;;;;;;10.54;83.42;101576.22;5101089;28;20347;-88
2023/04/29 04:43:31;;;;;;;47.42;22.67;;;;;;;10.52;82.51;101580.69;5109237;28;20023;-88
2023/04/29 04:45:56;;;;;;;47.00;23.55;;;;;;;10.53;83.16;101585.91;5103344;28;20489;-88
2023/04/29 04:48:22;;;;;;;47.20;23.23;;;;;;;10.62;83.15;101608.59;5111777;27;20028;-87
2023/04/29 04:50:47;;;;;;;47.97;23.55;;;;;;;10.58;82.64;101605.16;5110892;27;20106;-88
2023/04/29 04:53:12;;;;;;;43.30;22.25;;;;;;;10.60;83.13;101605.13;5106482;27;20072;-88
2023/04/29 04:55:37;;;;;;;41.80;21.15;;;;;;;10.61;82.91;101620.09;5103405;27;20584;-88
2023/04/29 04:58:03;;;;;;;45.20;23.25;;;;;;;10.57;83.14;101610.50;5111919;27;20577;-88
2023/04/29 05:00:28;;;;;;;46.45;22.52;;;;;;;10.64;83.03;101630.59;5097766;27;20085;-88
2023/04/29 05:02:53;;;;;;;42.40;21.40;;;;;;;10.55;82.78;101621.13;5102778;28;20028;-88
2023/04/29 05:05:19;;;;;;;38.38;20.52;;;;;;;10.57;82.44;101635.16;5107285;27;20023;-88
2023/04/29 05:07:44;;;;;;;35.83;20.65;;;;;;;10.59;82.33;101633.38;5107725;28;20250;-88
2023/04/29 05:10:10;;;;;;;38.63;21.50;;;;;;;10.60;82.75;101627.16;5110250;27;20030;-88
2023/04/29 05:12:35;;;;;;;33.65;19.33;;;;;;;10.63;82.22;101634.13;5105061;27;20337;-88
2023/04/29 05:15:03;;;;;;;33.45;20.23;;;;;;;10.68;82.37;101640.19;5113378;27;20018;-88
2023/04/29 05:17:28;;;;;;;36.83;19.42;;;;;;;10.64;82.69;101635.88;5104351;28;20075;-88
2023/04/29 05:19:53;;;;;;;41.25;20.50;;;;;;;10.60;82.24;101635.09;5110968;27;20011;-88
2023/04/29 05:22:19;;;;;;;38.47;18.77;;;;;;;10.64;82.29;101651.75;5100711;27;20028;-88
2023/04/29 05:24:44;;;;;;;35.53;18.67;;;;;;;10.58;82.21;101641.31;5105478;28;20027;-88
2023/04/29 05:27:09;;;;;;;35.47;19.63;;;;;;;10.59;82.59;101646.59;5100389;28;20027;-88
2023/04/29 05:29:35;;;;;;;39.47;20.48;;;;;;;10.64;82.13;101657.91;5103991;28;20024;-88
2023/04/29 05:32:01;;;;;;;35.15;20.35;;;;;;;10.60;82.64;101664.19;5097505;28;20058;-88
2023/04/29 05:34:26;;;;;;;36.30;19.70;;;;;;;10.65;82.07;101659.63;5102065;28;20035;-88
2023/04/29 05:36:51;;;;;;;34.97;19.85;;;;;;;10.75;82.11;101662.88;5110488;27;20023;-88
2023/04/29 05:39:17;;;;;;;36.40;19.73;;;;;;;10.76;81.24;101658.47;5114970;27;20023;-88
2023/04/29 05:41:42;;;;;;;33.13;19.42;;;;;;;10.70;81.67;101654.22;5124186;27;20392;-88
2023/04/29 05:44:08;;;;;;;37.40;20.13;;;;;;;10.73;81.31;101662.94;5100838;27;20503;-88
2023/04/29 05:46:34;;;;;;;38.08;18.65;;;;;;;10.67;81.87;101665.72;5107815;27;20038;-88
2023/04/29 05:48:59;;;;;;;34.83;19.67;;;;;;;10.69;81.72;101669.22;5104005;27;20036;-88
2023/04/29 05:51:24;;;;;;;37.88;20.15;;;;;;;10.68;82.10;101680.72;5105980;28;20031;-88
2023/04/29 05:53:50;;;;;;;37.58;19.77;;;;;;;10.63;82.30;101671.13;5104184;28;20023;-88
2023/04/29 05:56:15;;;;;;;33.85;18.55;;;;;;;10.66;82.25;101679.88;5103592;28;20104;-89
2023/04/29 05:58:40;;;;;;;31.95;18.30;;;;;;;10.68;81.52;101686.00;5108856;28;20021;-88
2023/04/29 06:01:06;;;;;;;33.33;19.02;;;;;;;10.69;81.77;101685.09;5109877;28;20639;-88
2023/04/29 06:03:31;;;;;;;34.85;20.45;;;;;;;10.72;81.77;101695.59;5109147;28;20023;-88
2023/04/29 06:05:57;;;;;;;34.30;19.55;;;;;;;10.69;82.08;101697.44;5103166;28;20088;-87
2023/04/29 06:08:22;;;;;;;34.35;18.20;;;;;;;10.70;81.99;101694.75;5106672;28;20028;-88
2023/04/29 06:10:50;;;;;;;36.85;20.08;;;;;;;10.77;81.83;101707.78;5102503;28;20038;-88
2023/04/29 06:13:16;;;;;;;32.05;19.35;;;;;;;10.75;81.88;101701.69;5095011;28;20044;-88
2023/04/29 06:15:41;;;;;;;33.58;18.40;;;;;;;10.78;81.52;101702.47;5102320;28;20401;-88
2023/04/29 06:18:06;;;;;;;34.28;19.48;;;;;;;10.67;81.11;101689.53;5109572;28;20027;-88
2023/04/29 06:20:31;;;;;;;30.90;18.27;;;;;;;10.77;81.45;101702.50;5098587;28;20118;-88
2023/04/29 06:22:57;;;;;;;33.88;18.95;;;;;;;10.76;81.23;101706.94;5105270;28;20501;-88
2023/04/29 06:25:22;;;;;;;33.45;17.55;;;;;;;10.78;81.10;101705.13;5102874;28;20039;-88
2023/04/29 06:27:48;;;;;;;30.92;18.27;;;;;;;10.79;80.96;101716.56;5103129;28;20032;-88
2023/04/29 06:30:13;;;;;;;35.65;18.77;;;;;;;10.82;80.94;101719.13;5103890;28;20462;-88
2023/04/29 06:32:39;;;;;;;31.00;17.98;;;;;;;10.79;80.87;101714.78;5107285;28;20538;-88
2023/04/29 06:35:04;;;;;;;31.23;18.75;;;;;;;10.88;80.85;101738.34;5106029;28;20031;-88
2023/04/29 06:37:30;;;;;;;31.30;18.40;;;;;;;10.87;80.57;101727.81;5109174;28;20039;-88
2023/04/29 06:39:55;;;;;;;30.27;19.02;;;;;;;10.91;80.86;101737.38;5105609;27;20100;-88
2023/04/29 06:42:20;;;;;;;32.20;18.45;;;;;;;10.93;82.01;101741.75;5104703;27;20054;-89
2023/04/29 06:44:46;;;;;;;32.88;19.40;;;;;;;10.88;81.95;101727.78;5119269;27;20073;-88
2023/04/29 06:47:11;;;;;;;30.25;18.75;;;;;;;11.02;80.96;101735.34;5101809;27;20309;-88
2023/04/29 06:49:36;;;;;;;28.15;17.50;;;;;;;11.08;80.42;101750.16;5107937;28;20015;-88
2023/04/29 06:52:02;;;;;;;33.22;18.55;;;;;;;11.08;79.64;101747.53;5107319;28;20039;-88
2023/04/29 06:54:27;;;;;;;32.95;18.35;;;;;;;11.08;79.78;101742.22;5110238;28;20059;-88
2023/04/29 06:56:53;;;;;;;29.45;17.60;;;;;;;11.29;79.07;101759.31;5109823;28;20701;-88
2023/04/29 06:59:18;;;;;;;29.75;16.88;;;;;;;11.35;78.59;101756.47;5107984;28;20050;-88
2023/04/29 07:01:44;;;;;;;25.88;16.60;;;;;;;11.39;78.27;101760.78;5101591;28;20027;-87
2023/04/29 07:04:09;;;;;;;29.75;16.63;;;;;;;11.40;77.88;101765.16;5107733;27;20031;-88
2023/04/29 07:06:35;;;;;;;28.10;16.83;;;;;;;11.47;77.86;101775.53;5108718;28;20080;-88
2023/04/29 07:09:01;;;;;;;27.48;16.48;;;;;;;11.55;78.12;101782.38;5108444;28;21432;-88
2023/04/29 07:11:26;;;;;;;26.85;16.92;;;;;;;11.57;77.44;101783.22;5109890;28;20115;-87
2023/04/29 07:13:52;;;;;;;24.98;16.08;;;;;;;11.57;76.87;101786.72;5107013;28;20047;-88
2023/04/29 07:16:19;;;;;;;25.17;15.13;;;;;;;11.61;76.84;101790.13;5105694;28;20111;-87
2023/04/29 07:18:45;;;;;;;23.90;15.98;;;;;;;11.60;76.17;101788.38;5107120;27;20087;-88
2023/04/29 07:21:10;;;;;;;27.48;14.57;;;;;;;11.54;75.64;101783.28;5107066;28;20035;-88
2023/04/29 07:23:35;;;;;;;28.75;15.95;;;;;;;11.65;75.66;101792.63;5109427;28;20360;-87
2023/04/29 07:26:10;;;;;;;23.38;15.10;;;;;;;11.71;75.72;101800.44;5106230;28;20039;-88
2023/04/29 07:28:36;;;;;;;26.75;16.27;;;;;;;11.67;74.84;101792.63;5111161;28;20042;-87
2023/04/29 07:31:01;;;;;;;25.10;15.77;;;;;;;11.79;75.05;101805.47;5107249;28;20486;-89
2023/04/29 07:33:27;;;;;;;24.60;15.05;;;;;;;11.79;75.54;101802.81;5108644;28;20070;-88
2023/04/29 07:35:52;;;;;;;25.15;15.30;;;;;;;11.79;74.66;101804.59;5106425;28;20104;-88
2023/04/29 07:38:18;;;;;;;25.05;14.73;;;;;;;11.79;74.99;101800.19;5107166;28;20052;-88
2023/04/29 07:40:43;;;;;;;24.75;15.32;;;;;;;11.84;74.61;101806.22;5109403;28;21358;-88
2023/04/29 07:43:09;;;;;;;23.38;14.82;;;;;;;11.86;74.13;101804.44;5106482;28;20027;-88
2023/04/29 07:45:34;;;;;;;22.48;14.57;;;;;;;11.98;73.71;101809.38;5099481;28;20112;-88
2023/04/29 07:47:59;;;;;;;20.58;13.57;;;;;;;12.08;73.73;101801.13;5108939;28;20023;-87
2023/04/29 07:50:25;;;;;;;23.25;13.75;;;;;;;12.20;72.72;101817.50;5106433;28;20415;-88
2023/04/29 07:52:50;;;;;;;19.75;14.02;;;;;;;12.36;72.84;101817.91;5105399;28;20101;-88
2023/04/29 07:55:15;;;;;;;21.60;14.02;;;;;;;12.43;71.77;101806.16;5105237;28;20057;-88
2023/04/29 07:57:41;;;;;;;19.35;12.90;;;;;;;12.57;70.98;101826.06;5106992;28;20058;-88
2023/04/29 08:00:07;;;;;;;23.33;13.90;;;;;;;12.47;70.68;101814.91;5110525;27;20094;-88
2023/04/29 08:02:32;;;;;;;19.70;13.23;;;;;;;12.48;70.60;101821.94;5107148;28;20028;-88
2023/04/29 08:04:57;;;;;;;19.98;13.43;;;;;;;12.46;70.97;101811.38;5112413;28;20030;-88
2023/04/29 08:07:22;;;;;;;24.40;15.00;;;;;;;12.62;71.31;101834.75;5110480;28;20042;-88
2023/04/29 08:09:48;;;;;;;18.63;13.10;;;;;;;12.68;71.83;101834.53;5106420;28;20024;-88
2023/04/29 08:12:13;;;;;;;22.55;14.35;;;;;;;12.70;71.03;101824.75;5105865;28;20028;-88
2023/04/29 08:14:38;;;;;;;22.83;13.52;;;;;;;12.83;70.87;101834.03;5109407;28;20015;-88
2023/04/29 08:17:04;;;;;;;20.23;13.48;;;;;;;12.77;69.05;101836.88;5102467;28;20016;-88
2023/04/29 08:19:30;;;;;;;21.88;13.73;;;;;;;12.85;70.56;101845.47;5113229;28;20517;-88
2023/04/29 08:21:55;;;;;;;20.02;13.10;;;;;;;12.87;69.21;101840.09;5106496;28;20038;-88
2023/04/29 08:24:21;;;;;;;20.90;12.95;;;;;;;12.98;69.47;101837.97;5111382;28;20034;-87
2023/04/29 08:26:47;;;;;;;21.13;14.27;;;;;;;13.15;69.38;101842.66;5103231;28;20054;-88
2023/04/29 08:29:12;;;;;;;20.92;13.20;;;;;;;13.36;68.92;101833.13;5108455;28;20562;-88
2023/04/29 08:31:37;;;;;;;18.50;11.90;;;;;;;13.63;67.24;101850.72;5102868;28;20091;-87
2023/04/29 08:34:02;;;;;;;20.02;12.45;;;;;;;13.82;67.16;101845.59;5109776;27;20125;-89
2023/04/29 08:36:28;;;;;;;17.67;12.38;;;;;;;14.17;66.38;101857.53;5110236;28;20042;-88
2023/04/29 08:38:54;;;;;;;18.60;13.18;;;;;;;14.58;68.49;101848.88;5109778;27;20556;-89
2023/04/29 08:41:20;;;;;;;21.30;13.25;;;;;;;15.09;65.33;101840.50;5105512;28;20049;-88
2023/04/29 08:43:45;;;;;;;17.95;12.60;;;;;;;15.51;64.65;101836.88;5108247;28;20693;-88
2023/04/29 08:46:11;;;;;;;16.83;11.75;;;;;;;16.07;62.37;101857.44;5108124;28;20032;-89
2023/04/29 08:48:38;;;;;;;20.23;12.02;;;;;;;16.00;60.11;101854.22;5110544;28;20121;-88
2023/04/29 08:51:04;;;;;;;17.05;11.20;;;;;;;15.74;59.58;101844.72;5109513;28;20115;-88
2023/04/29 08:53:29;;;;;;;14.82;11.55;;;;;;;15.67;60.92;101853.09;5107103;28;20383;-88
2023/04/29 08:56:00;;;;;;;17.98;11.50;;;;;;;15.48;59.22;101858.31;5108232;28;20046;-88
2023/04/29 08:58:28;;;;;;;15.25;11.13;;;;;;;15.24;60.61;101850.47;5105458;28;20386;-88
2023/04/29 09:00:53;;;;;;;17.23;11.55;;;;;;;15.27;60.13;101870.81;5105544;28;20043;-88
2023/04/29 09:03:27;;;;;;;17.35;11.38;;;;;;;15.28;61.17;101851.22;5099621;28;20036;-88
2023/04/29 09:05:54;;;;;;;16.95;11.45;;;;;;;15.60;58.83;101854.25;5103427;28;20533;-89
2023/04/29 09:08:21;;;;;;;17.27;11.63;;;;;;;15.93;61.08;101859.88;5106089;28;20471;-88
2023/04/29 09:10:47;;;;;;;16.02;11.52;;;;;;;16.48;60.16;101865.28;5106408;28;20489;-88
2023/04/29 09:13:41;;;;;;;19.40;12.10;;;;;;;17.78;58.00;101872.91;5105879;28;20031;-88
2023/04/29 09:16:11;;;;;;;17.20;11.82;;;;;;;18.24;55.41;101872.22;5090009;28;20043;-88
2023/04/29 09:18:57;;;;;;;18.08;11.18;;;;;;;18.38;55.56;101879.47;5104744;28;20062;-89
2023/04/29 09:21:24;;;;;;;17.55;10.73;;;;;;;18.03;52.71;101884.94;5099574;28;20040;-88
2023/04/29 09:23:52;;;;;;;16.42;10.98;;;;;;;17.51;53.23;101887.72;5103663;28;20054;-88
2023/04/29 09:26:18;;;;;;;14.88;10.73;;;;;;;16.99;55.29;101867.22;5106548;28;20032;-88
2023/04/29 09:28:44;;;;;;;17.63;10.45;;;;;;;17.10;55.81;101877.34;5105145;28;20088;-89
2023/04/29 09:31:10;;;;;;;16.48;10.88;;;;;;;17.84;54.27;101875.25;5105239;28;20041;-88
2023/04/29 09:33:53;;;;;;;11.00;9.05;;;;;;;18.93;53.41;101876.28;5109591;28;20028;-88
2023/04/29 09:36:39;;;;;;;15.65;10.85;;;;;;;19.22;53.34;101869.22;5103874;28;20070;-88
2023/04/29 09:39:10;;;;;;;12.63;9.65;;;;;;;18.76;52.53;101874.63;5108287;28;20479;-89
2023/04/29 09:41:57;;;;;;;;;;;;;;;18.77;54.99;101882.56;5106024;28;20043;-88
2023/04/29 09:44:26;;;;;;;17.10;9.40;;;;;;;19.61;50.70;101876.69;5105889;28;19916;-89
2023/04/29 09:47:04;;;;;;;14.40;10.23;;;;;;;20.77;48.88;101863.00;5103815;28;20027;-90
2023/04/29 09:49:31;;;;;;;11.40;8.55;;;;;;;20.47;45.71;101888.28;5104694;28;20028;-89
2023/04/29 09:52:01;;;;;;;10.45;8.02;;;;;;;19.97;47.33;101886.97;5100633;28;20030;-89
2023/04/29 09:54:29;;;;;;;13.50;8.95;;;;;;;19.92;47.64;101889.06;5106623;28;20031;-89
2023/04/29 09:56:56;;;;;;;10.48;9.38;;;;;;;20.73;49.28;101886.53;5103037;28;20039;-89
2023/04/29 09:59:22;;;;;;;14.70;9.13;;;;;;;21.08;46.10;101892.25;5102554;28;20050;-89
2023/04/29 10:01:56;;;;;;;14.43;8.80;;;;;;;20.09;47.81;101885.31;5101843;28;20024;-88
2023/04/29 10:04:23;;;;;;;15.45;10.07;;;;;;;19.07;48.38;101882.59;5098545;28;20598;-89
2023/04/29 10:06:50;;;;;;;14.80;10.13;;;;;;;18.53;49.50;101900.00;5101606;28;20371;-88
2023/04/29 10:09:17;;;;;;;14.80;9.73;;;;;;;17.99;49.75;101897.63;5101804;28;20027;-88
2023/04/29 10:11:49;;;;;;;11.98;9.60;;;;;;;17.71;52.34;101898.22;5103950;28;20055;-88
2023/04/29 10:14:17;;;;;;;13.43;9.68;;;;;;;18.16;51.96;101911.91;5106101;28;20034;-89
2023/04/29 10:17:02;;;;;;;17.27;9.63;;;;;;;18.78;51.05;101905.72;5103197;27;20024;-89
2023/04/29 10:19:59;;;;;;;14.65;10.43;;;;;;;18.60;52.06;101899.59;5109887;27;20031;-90
2023/04/29 10:22:49;;;;;;;14.60;9.38;;;;;;;18.63;51.54;101905.72;5102379;28;20478;-89
2023/04/29 10:25:16;;;;;;;13.68;9.65;;;;;;;18.29;50.36;101912.97;5105345;28;20099;-89
2023/04/29 10:27:43;;;;;;;12.98;9.23;;;;;;;18.00;50.24;101917.22;5106542;28;20041;-89
2023/04/29 10:30:12;;;;;;;11.80;8.85;;;;;;;17.71;52.03;101908.91;5106050;28;20028;-89
2023/04/29 10:32:40;;;;;;;13.98;9.25;;;;;;;17.49;50.24;101908.34;5108469;28;20673;-88
2023/04/29 10:35:08;;;;;;;11.55;9.38;;;;;;;17.27;52.90;101905.88;5111868;28;20521;-89
2023/04/29 10:37:35;;;;;;;11.82;8.85;;;;;;;17.14;52.25;101918.13;5101710;28;20092;-88
2023/04/29 10:40:30;;;;;;;13.77;9.75;;;;;;;17.19;53.77;101919.63;5109942;28;20428;-88
2023/04/29 10:42:55;;;;;;;12.90;9.70;;;;;;;17.20;53.63;101909.81;5110574;27;20044;-88
2023/04/29 10:45:21;;;;;;;14.05;9.23;;;;;;;17.32;52.51;101923.41;5108616;28;20039;-89
2023/04/29 10:48:05;;;;;;;17.67;9.88;;;;;;;17.40;53.13;101923.03;5109512;28;21643;-88
2023/04/29 10:50:58;;;;;;;11.88;8.73;;;;;;;17.30;53.39;101919.09;5106132;28;20027;-89
2023/04/29 10:53:24;;;;;;;12.15;8.50;;;;;;;17.29;53.63;101915.53;5105890;27;20028;-89
2023/04/29 10:55:56;;;;;;;14.70;8.57;;;;;;;17.33;53.53;101916.25;5106355;28;20482;-88
2023/04/29 10:58:45;;;;;;;11.77;9.32;;;;;;;17.37;52.56;101919.66;5108497;27;20092;-88
2023/04/29 11:01:15;;;;;;;11.77;9.15;;;;;;;17.20;52.21;101918.69;5106720;28;20495;-89
2023/04/29 11:03:45;;;;;;;12.52;8.57;;;;;;;17.33;51.69;101921.59;5107323;28;20024;-88
2023/04/29 11:06:10;;;;;;;13.27;8.93;;;;;;;17.24;51.49;101906.03;5104811;28;20600;-89
2023/04/29 11:08:39;;;;;;;14.60;9.05;;;;;;;17.03;50.48;101924.03;5102735;28;20388;-88
2023/04/29 11:11:07;;;;;;;11.63;9.05;;;;;;;16.95;52.73;101932.41;5099567;27;20146;-89